sensor_id;sensor_type;location;lat;lon;timestamp;pressure;altitude;pressure_sealevel;temperature;humidity
53514;BME280;39768;54.148;12.174;2023-08-20T00:02:37;101775.16;;;21.47;100.00
53514;BME280;39768;54.148;12.174;2023-08-20T00:06:39;101781.75;;;20.85;100.00
53514;BME280;39768;54.148;12.174;2023-08-20T00:10:41;101784.78;;;21.39;100.00
53514;BME280;39768;54.148;12.174;2023-08-20T00:14:59;101786.03;;;21.47;100.00
53514;BME280;39768;54.148;12.174;2023-08-20T00:19:06;101788.84;;;21.31;100.00
53514;BME280;39768;54.148;12.174;2023-08-20T00:23:08;101790.72;;;21.01;100.00
53514;BME280;39768;54.148;12.174;2023-08-20T00:27:10;101783.47;;;20.72;100.00
53514;BME280;39768;54.148;12.174;2023-08-20T00:31:12;101788.06;;;21.29;100.00
53514;BME280;39768;54.148;12.174;2023-08-20T00:35:13;101785.16;;;21.32;100.00
53514;BME280;39768;54.148;12.174;2023-08-20T00:39:15;101790.47;;;21.20;100.00
53514;BME280;39768;54.148;12.174;2023-08-20T00:43:17;101794.50;;;21.28;100.00
53514;BME280;39768;54.148;12.174;2023-08-20T00:47:19;101799.38;;;21.38;100.00
53514;BME280;39768;54.148;12.174;2023-08-20T00:51:21;101803.91;;;21.23;100.00
53514;BME280;39768;54.148;12.174;2023-08-20T00:55:23;101798.97;;;21.29;100.00
53514;BME280;39768;54.148;12.174;2023-08-20T00:59:26;101799.84;;;21.30;100.00
53514;BME280;39768;54.148;12.174;2023-08-20T01:03:28;101795.00;;;21.35;100.00
53514;BME280;39768;54.148;12.174;2023-08-20T01:07:39;101802.84;;;21.25;100.00
53514;BME280;39768;54.148;12.174;2023-08-20T01:11:48;101805.25;;;21.16;100.00
53514;BME280;39768;54.148;12.174;2023-08-20T01:15:51;101805.44;;;21.13;100.00
53514;BME280;39768;54.148;12.174;2023-08-20T01:19:52;101813.72;;;21.11;100.00
53514;BME280;39768;54.148;12.174;2023-08-20T01:24:17;101813.88;;;20.94;100.00
53514;BME280;39768;54.148;12.174;2023-08-20T01:28:29;101807.38;;;20.96;100.00
53514;BME280;39768;54.148;12.174;2023-08-20T01:32:31;101807.41;;;21.25;100.00
53514;BME280;39768;54.148;12.174;2023-08-20T01:36:33;101814.78;;;21.23;100.00
53514;BME280;39768;54.148;12.174;2023-08-20T01:40:34;101821.19;;;21.22;100.00
53514;BME280;39768;54.148;12.174;2023-08-20T01:44:36;101820.97;;;20.96;100.00
53514;BME280;39768;54.148;12.174;2023-08-20T01:48:37;101832.34;;;20.57;100.00
53514;BME280;39768;54.148;12.174;2023-08-20T01:52:39;101832.25;;;20.75;100.00
53514;BME280;39768;54.148;12.174;2023-08-20T01:56:41;101833.31;;;20.72;100.00
53514;BME280;39768;54.148;12.174;2023-08-20T02:00:42;101842.78;;;20.81;100.00
53514;BME280;39768;54.148;12.174;2023-08-20T02:04:44;101843.50;;;20.69;100.00
53514;BME280;39768;54.148;12.174;2023-08-20T02:08:45;101851.13;;;20.78;100.00
53514;BME280;39768;54.148;12.174;2023-08-20T02:12:47;101853.69;;;20.49;100.00
53514;BME280;39768;54.148;12.174;2023-08-20T02:16:50;101858.09;;;20.36;100.00
53514;BME280;39768;54.148;12.174;2023-08-20T02:20:52;101860.63;;;20.23;100.00
53514;BME280;39768;54.148;12.174;2023-08-20T02:24:53;101865.16;;;20.39;100.00
53514;BME280;39768;54.148;12.174;2023-08-20T02:28:55;101869.47;;;20.58;100.00
53514;BME280;39768;54.148;12.174;2023-08-20T02:32:56;101884.41;;;20.36;100.00
53514;BME280;39768;54.148;12.174;2023-08-20T02:36:58;101889.28;;;20.60;100.00
53514;BME280;39768;54.148;12.174;2023-08-20T02:41:00;101891.22;;;20.27;100.00
53514;BME280;39768;54.148;12.174;2023-08-20T02:45:04;101891.31;;;20.25;100.00
53514;BME280;39768;54.148;12.174;2023-08-20T02:49:06;101900.88;;;19.84;100.00
53514;BME280;39768;54.148;12.174;2023-08-20T02:53:07;101907.78;;;19.74;100.00
53514;BME280;39768;54.148;12.174;2023-08-20T02:57:09;101905.19;;;19.38;100.00
53514;BME280;39768;54.148;12.174;2023-08-20T03:01:26;101904.44;;;19.51;100.00
53514;BME280;39768;54.148;12.174;2023-08-20T03:05:29;101897.59;;;19.62;100.00
53514;BME280;39768;54.148;12.174;2023-08-20T03:09:30;101901.66;;;19.53;100.00
53514;BME280;39768;54.148;12.174;2023-08-20T03:13:32;101913.16;;;19.58;100.00
53514;BME280;39768;54.148;12.174;2023-08-20T03:17:34;101897.44;;;19.80;100.00
53514;BME280;39768;54.148;12.174;2023-08-20T03:21:36;101904.25;;;19.72;100.00
53514;BME280;39768;54.148;12.174;2023-08-20T03:25:38;101904.34;;;19.70;100.00
53514;BME280;39768;54.148;12.174;2023-08-20T03:29:40;101902.13;;;19.61;100.00
53514;BME280;39768;54.148;12.174;2023-08-20T03:33:41;101902.81;;;19.65;100.00
53514;BME280;39768;54.148;12.174;2023-08-20T03:37:43;101911.53;;;19.71;100.00
53514;BME280;39768;54.148;12.174;2023-08-20T03:41:45;101919.69;;;19.71;100.00
53514;BME280;39768;54.148;12.174;2023-08-20T03:45:52;101917.72;;;19.57;100.00
53514;BME280;39768;54.148;12.174;2023-08-20T03:49:54;101916.50;;;19.63;100.00
53514;BME280;39768;54.148;12.174;2023-08-20T03:53:55;101925.72;;;19.93;100.00
53514;BME280;39768;54.148;12.174;2023-08-20T03:57:57;101927.41;;;19.79;100.00
53514;BME280;39768;54.148;12.174;2023-08-20T04:01:58;101930.31;;;19.76;100.00
53514;BME280;39768;54.148;12.174;2023-08-20T04:06:00;101928.38;;;19.78;100.00
53514;BME280;39768;54.148;12.174;2023-08-20T04:10:02;101937.00;;;19.69;100.00
53514;BME280;39768;54.148;12.174;2023-08-20T04:14:04;101937.66;;;19.56;100.00
53514;BME280;39768;54.148;12.174;2023-08-20T04:18:06;101933.34;;;19.52;100.00
53514;BME280;39768;54.148;12.174;2023-08-20T04:22:08;101928.94;;;19.67;100.00
53514;BME280;39768;54.148;12.174;2023-08-20T04:26:09;101940.19;;;19.94;100.00
53514;BME280;39768;54.148;12.174;2023-08-20T04:30:11;101943.78;;;19.94;100.00
53514;BME280;39768;54.148;12.174;2023-08-20T04:34:13;101946.69;;;19.74;100.00
53514;BME280;39768;54.148;12.174;2023-08-20T04:38:20;101946.00;;;20.04;100.00
53514;BME280;39768;54.148;12.174;2023-08-20T04:42:21;101955.78;;;19.73;100.00
53514;BME280;39768;54.148;12.174;2023-08-20T04:46:23;101959.44;;;20.07;100.00
53514;BME280;39768;54.148;12.174;2023-08-20T04:50:25;101963.78;;;20.09;100.00
53514;BME280;39768;54.148;12.174;2023-08-20T04:54:26;101969.97;;;19.78;100.00
53514;BME280;39768;54.148;12.174;2023-08-20T04:58:28;101958.94;;;19.81;100.00
53514;BME280;39768;54.148;12.174;2023-08-20T05:02:30;101971.50;;;19.67;100.00
53514;BME280;39768;54.148;12.174;2023-08-20T05:06:35;101970.78;;;19.98;100.00
53514;BME280;39768;54.148;12.174;2023-08-20T05:10:36;101979.50;;;19.87;100.00
53514;BME280;39768;54.148;12.174;2023-08-20T05:14:38;101973.84;;;19.40;100.00
53514;BME280;39768;54.148;12.174;2023-08-20T05:18:41;101973.91;;;19.90;100.00
53514;BME280;39768;54.148;12.174;2023-08-20T05:22:44;101972.66;;;20.13;100.00
53514;BME280;39768;54.148;12.174;2023-08-20T05:26:46;101990.84;;;19.78;100.00
53514;BME280;39768;54.148;12.174;2023-08-20T05:31:14;101991.31;;;20.03;100.00
53514;BME280;39768;54.148;12.174;2023-08-20T05:35:16;101995.06;;;20.01;100.00
53514;BME280;39768;54.148;12.174;2023-08-20T05:39:18;101997.00;;;20.32;100.00
53514;BME280;39768;54.148;12.174;2023-08-20T05:43:20;101998.44;;;20.06;100.00
53514;BME280;39768;54.148;12.174;2023-08-20T05:47:22;102009.78;;;19.97;100.00
53514;BME280;39768;54.148;12.174;2023-08-20T05:51:24;102025.13;;;19.98;100.00
53514;BME280;39768;54.148;12.174;2023-08-20T05:55:25;102022.72;;;19.40;100.00
53514;BME280;39768;54.148;12.174;2023-08-20T05:59:28;102020.31;;;19.68;100.00
53514;BME280;39768;54.148;12.174;2023-08-20T06:03:30;102009.59;;;19.82;100.00
53514;BME280;39768;54.148;12.174;2023-08-20T06:07:32;102016.06;;;19.80;100.00
53514;BME280;39768;54.148;12.174;2023-08-20T06:11:33;102009.69;;;19.64;100.00
53514;BME280;39768;54.148;12.174;2023-08-20T06:15:35;102019.91;;;19.93;99.47
53514;BME280;39768;54.148;12.174;2023-08-20T06:19:36;102013.78;;;19.72;97.09
53514;BME280;39768;54.148;12.174;2023-08-20T06:23:39;102020.16;;;19.88;96.70
53514;BME280;39768;54.148;12.174;2023-08-20T06:27:45;102019.53;;;20.01;98.25
53514;BME280;39768;54.148;12.174;2023-08-20T06:31:47;102027.00;;;19.78;97.13
53514;BME280;39768;54.148;12.174;2023-08-20T06:35:49;102016.94;;;19.80;96.93
53514;BME280;39768;54.148;12.174;2023-08-20T06:39:50;102005.50;;;20.08;94.94
53514;BME280;39768;54.148;12.174;2023-08-20T06:43:52;102010.66;;;20.30;93.83
53514;BME280;39768;54.148;12.174;2023-08-20T06:47:54;102017.19;;;20.43;94.10
53514;BME280;39768;54.148;12.174;2023-08-20T06:51:55;102020.69;;;20.45;92.50
53514;BME280;39768;54.148;12.174;2023-08-20T06:55:57;102016.22;;;20.44;90.87
53514;BME280;39768;54.148;12.174;2023-08-20T06:59:58;102009.97;;;20.42;88.86
53514;BME280;39768;54.148;12.174;2023-08-20T07:04:00;102002.50;;;20.63;89.79
53514;BME280;39768;54.148;12.174;2023-08-20T07:08:04;101994.69;;;20.88;88.73
53514;BME280;39768;54.148;12.174;2023-08-20T07:12:06;101994.75;;;20.87;87.17
53514;BME280;39768;54.148;12.174;2023-08-20T07:16:08;102003.91;;;20.70;89.62
53514;BME280;39768;54.148;12.174;2023-08-20T07:20:09;102008.28;;;20.73;88.03
53514;BME280;39768;54.148;12.174;2023-08-20T07:24:11;102012.81;;;21.19;83.82
53514;BME280;39768;54.148;12.174;2023-08-20T07:28:12;102004.75;;;21.18;82.53
53514;BME280;39768;54.148;12.174;2023-08-20T07:32:14;102010.22;;;20.86;80.58
53514;BME280;39768;54.148;12.174;2023-08-20T07:36:16;102017.06;;;20.78;81.41
53514;BME280;39768;54.148;12.174;2023-08-20T07:40:18;102022.97;;;20.37;82.57
53514;BME280;39768;54.148;12.174;2023-08-20T07:44:20;102039.34;;;20.69;83.83
53514;BME280;39768;54.148;12.174;2023-08-20T07:48:21;102045.31;;;20.42;85.40
53514;BME280;39768;54.148;12.174;2023-08-20T07:52:22;102042.78;;;20.88;82.67
53514;BME280;39768;54.148;12.174;2023-08-20T07:56:24;102057.09;;;20.91;82.79
53514;BME280;39768;54.148;12.174;2023-08-20T08:00:26;102052.78;;;21.03;79.70
53514;BME280;39768;54.148;12.174;2023-08-20T08:04:27;102073.34;;;20.60;85.93
53514;BME280;39768;54.148;12.174;2023-08-20T08:08:29;102075.09;;;20.61;86.16
53514;BME280;39768;54.148;12.174;2023-08-20T08:12:30;102072.22;;;20.97;80.35
53514;BME280;39768;54.148;12.174;2023-08-20T08:16:32;102068.50;;;21.75;78.38
53514;BME280;39768;54.148;12.174;2023-08-20T08:20:33;102071.50;;;20.60;85.06
53514;BME280;39768;54.148;12.174;2023-08-20T08:24:35;102062.84;;;20.70;92.34
53514;BME280;39768;54.148;12.174;2023-08-20T08:28:37;102054.25;;;20.28;89.93
53514;BME280;39768;54.148;12.174;2023-08-20T08:32:38;102071.66;;;20.57;92.14
53514;BME280;39768;54.148;12.174;2023-08-20T08:36:40;102074.72;;;19.84;89.03
53514;BME280;39768;54.148;12.174;2023-08-20T08:40:42;102075.25;;;20.42;87.33
53514;BME280;39768;54.148;12.174;2023-08-20T08:44:44;102081.91;;;20.37;87.18
53514;BME280;39768;54.148;12.174;2023-08-20T08:48:47;102072.03;;;20.51;84.34
53514;BME280;39768;54.148;12.174;2023-08-20T08:52:51;102079.28;;;20.35;84.36
53514;BME280;39768;54.148;12.174;2023-08-20T08:56:54;102087.63;;;21.28;79.77
53514;BME280;39768;54.148;12.174;2023-08-20T09:00:55;102097.03;;;20.91;81.86
53514;BME280;39768;54.148;12.174;2023-08-20T09:04:57;102108.59;;;20.46;79.82
53514;BME280;39768;54.148;12.174;2023-08-20T09:09:05;102106.00;;;20.93;82.05
53514;BME280;39768;54.148;12.174;2023-08-20T09:13:08;102116.41;;;20.85;81.68
53514;BME280;39768;54.148;12.174;2023-08-20T09:17:10;102121.47;;;20.42;84.06
53514;BME280;39768;54.148;12.174;2023-08-20T09:21:13;102131.03;;;19.80;88.44
53514;BME280;39768;54.148;12.174;2023-08-20T09:25:15;102125.50;;;20.01;86.92
53514;BME280;39768;54.148;12.174;2023-08-20T09:29:18;102128.53;;;20.29;86.66
53514;BME280;39768;54.148;12.174;2023-08-20T09:33:19;102137.38;;;20.67;81.83
53514;BME280;39768;54.148;12.174;2023-08-20T09:37:23;102140.19;;;20.48;83.54
53514;BME280;39768;54.148;12.174;2023-08-20T09:41:25;102136.81;;;20.43;82.28
53514;BME280;39768;54.148;12.174;2023-08-20T09:45:28;102131.16;;;20.30;83.74
53514;BME280;39768;54.148;12.174;2023-08-20T09:49:35;102140.31;;;20.95;77.60
53514;BME280;39768;54.148;12.174;2023-08-20T09:53:40;102135.69;;;21.29;78.63
53514;BME280;39768;54.148;12.174;2023-08-20T09:57:47;102142.16;;;21.58;72.91
53514;BME280;39768;54.148;12.174;2023-08-20T10:01:50;102136.38;;;21.64;71.27
53514;BME280;39768;54.148;12.174;2023-08-20T10:05:52;102131.28;;;21.58;71.64
53514;BME280;39768;54.148;12.174;2023-08-20T10:09:54;102134.13;;;21.56;71.36
53514;BME280;39768;54.148;12.174;2023-08-20T10:13:55;102135.69;;;21.29;70.60
53514;BME280;39768;54.148;12.174;2023-08-20T10:17:57;102140.09;;;20.83;78.51
53514;BME280;39768;54.148;12.174;2023-08-20T10:22:02;102137.88;;;21.22;73.95
53514;BME280;39768;54.148;12.174;2023-08-20T10:26:08;102134.81;;;21.90;73.32
53514;BME280;39768;54.148;12.174;2023-08-20T10:30:17;102143.28;;;21.85;65.78
53514;BME280;39768;54.148;12.174;2023-08-20T10:34:39;102144.66;;;21.47;71.83
53514;BME280;39768;54.148;12.174;2023-08-20T10:38:41;102140.31;;;22.34;69.37
53514;BME280;39768;54.148;12.174;2023-08-20T10:42:43;102131.53;;;22.15;68.15
53514;BME280;39768;54.148;12.174;2023-08-20T10:46:50;102132.72;;;22.25;68.70
53514;BME280;39768;54.148;12.174;2023-08-20T10:50:55;102124.53;;;22.25;67.24
53514;BME280;39768;54.148;12.174;2023-08-20T10:54:56;102127.34;;;22.23;64.68
53514;BME280;39768;54.148;12.174;2023-08-20T10:59:05;102125.44;;;21.95;70.58
53514;BME280;39768;54.148;12.174;2023-08-20T11:03:07;102120.22;;;21.91;67.38
53514;BME280;39768;54.148;12.174;2023-08-20T11:07:09;102123.09;;;22.48;65.73
53514;BME280;39768;54.148;12.174;2023-08-20T11:11:11;102119.41;;;22.04;63.19
53514;BME280;39768;54.148;12.174;2023-08-20T11:15:13;102121.97;;;22.08;66.55
53514;BME280;39768;54.148;12.174;2023-08-20T11:19:21;102118.34;;;22.65;64.29
53514;BME280;39768;54.148;12.174;2023-08-20T11:23:23;102117.66;;;22.62;58.44
53514;BME280;39768;54.148;12.174;2023-08-20T11:27:28;102123.78;;;23.08;59.46
53514;BME280;39768;54.148;12.174;2023-08-20T11:31:29;102124.84;;;23.05;58.45
53514;BME280;39768;54.148;12.174;2023-08-20T11:35:32;102132.56;;;22.99;58.83
53514;BME280;39768;54.148;12.174;2023-08-20T11:39:36;102141.91;;;22.52;58.19
53514;BME280;39768;54.148;12.174;2023-08-20T11:43:41;102137.47;;;22.80;60.97
53514;BME280;39768;54.148;12.174;2023-08-20T11:47:42;102130.16;;;22.80;61.75
53514;BME280;39768;54.148;12.174;2023-08-20T11:51:47;102134.13;;;23.17;61.07
53514;BME280;39768;54.148;12.174;2023-08-20T11:55:50;102137.53;;;23.21;55.57
53514;BME280;39768;54.148;12.174;2023-08-20T11:59:52;102137.03;;;22.43;59.55
53514;BME280;39768;54.148;12.174;2023-08-20T12:03:59;102141.91;;;22.52;60.94
53514;BME280;39768;54.148;12.174;2023-08-20T12:08:03;102148.44;;;22.50;62.09
53514;BME280;39768;54.148;12.174;2023-08-20T12:12:06;102147.59;;;22.63;60.95
53514;BME280;39768;54.148;12.174;2023-08-20T12:16:08;102146.34;;;22.25;60.85
53514;BME280;39768;54.148;12.174;2023-08-20T12:20:10;102153.31;;;22.00;62.66
53514;BME280;39768;54.148;12.174;2023-08-20T12:24:13;102138.44;;;22.20;62.47
53514;BME280;39768;54.148;12.174;2023-08-20T12:28:16;102136.72;;;22.48;57.45
53514;BME280;39768;54.148;12.174;2023-08-20T12:32:17;102141.22;;;22.49;58.72
53514;BME280;39768;54.148;12.174;2023-08-20T12:36:19;102140.19;;;22.21;58.22
53514;BME280;39768;54.148;12.174;2023-08-20T12:40:20;102139.41;;;22.63;57.49
53514;BME280;39768;54.148;12.174;2023-08-20T12:44:23;102143.56;;;22.55;59.25
53514;BME280;39768;54.148;12.174;2023-08-20T12:48:24;102139.69;;;22.45;57.26
53514;BME280;39768;54.148;12.174;2023-08-20T12:52:26;102140.47;;;22.61;58.39
53514;BME280;39768;54.148;12.174;2023-08-20T12:56:27;102144.63;;;22.52;61.40
53514;BME280;39768;54.148;12.174;2023-08-20T13:00:29;102144.91;;;22.33;59.03
53514;BME280;39768;54.148;12.174;2023-08-20T13:04:31;102141.38;;;22.90;57.46
53514;BME280;39768;54.148;12.174;2023-08-20T13:08:33;102156.19;;;22.57;56.58
53514;BME280;39768;54.148;12.174;2023-08-20T13:12:36;102146.03;;;23.02;59.63
53514;BME280;39768;54.148;12.174;2023-08-20T13:16:37;102141.66;;;22.99;54.25
53514;BME280;39768;54.148;12.174;2023-08-20T13:20:40;102139.00;;;23.12;56.29
53514;BME280;39768;54.148;12.174;2023-08-20T13:24:44;102139.22;;;22.81;56.49
53514;BME280;39768;54.148;12.174;2023-08-20T13:28:46;102143.00;;;22.64;56.32
53514;BME280;39768;54.148;12.174;2023-08-20T13:32:47;102144.28;;;23.01;52.37
53514;BME280;39768;54.148;12.174;2023-08-20T13:36:49;102150.31;;;23.34;49.99
53514;BME280;39768;54.148;12.174;2023-08-20T13:40:50;102143.50;;;23.54;50.04
53514;BME280;39768;54.148;12.174;2023-08-20T13:44:52;102143.91;;;23.48;46.74
53514;BME280;39768;54.148;12.174;2023-08-20T13:48:53;102138.19;;;23.65;48.39
53514;BME280;39768;54.148;12.174;2023-08-20T13:52:55;102140.56;;;23.02;47.60
53514;BME280;39768;54.148;12.174;2023-08-20T13:56:58;102142.09;;;23.06;46.63
53514;BME280;39768;54.148;12.174;2023-08-20T14:01:00;102138.59;;;23.59;45.32
53514;BME280;39768;54.148;12.174;2023-08-20T14:05:07;102142.25;;;23.72;44.72
53514;BME280;39768;54.148;12.174;2023-08-20T14:09:08;102128.25;;;23.09;48.64
53514;BME280;39768;54.148;12.174;2023-08-20T14:13:10;102134.34;;;22.57;49.09
53514;BME280;39768;54.148;12.174;2023-08-20T14:17:12;102132.66;;;23.12;48.94
53514;BME280;39768;54.148;12.174;2023-08-20T14:21:13;102127.22;;;22.83;50.00
53514;BME280;39768;54.148;12.174;2023-08-20T14:25:15;102131.63;;;22.86;49.77
53514;BME280;39768;54.148;12.174;2023-08-20T14:29:16;102129.66;;;22.88;51.65
53514;BME280;39768;54.148;12.174;2023-08-20T14:33:18;102116.38;;;22.96;49.48
53514;BME280;39768;54.148;12.174;2023-08-20T14:37:19;102116.91;;;23.43;48.94
53514;BME280;39768;54.148;12.174;2023-08-20T14:41:22;102126.47;;;23.36;46.75
53514;BME280;39768;54.148;12.174;2023-08-20T14:45:24;102122.81;;;23.50;46.60
53514;BME280;39768;54.148;12.174;2023-08-20T14:49:25;102118.88;;;24.08;46.13
53514;BME280;39768;54.148;12.174;2023-08-20T14:53:28;102114.34;;;23.67;46.64
53514;BME280;39768;54.148;12.174;2023-08-20T14:57:30;102107.00;;;23.82;45.08
53514;BME280;39768;54.148;12.174;2023-08-20T15:01:45;102115.47;;;24.04;44.82
53514;BME280;39768;54.148;12.174;2023-08-20T15:05:47;102104.66;;;24.28;44.45
53514;BME280;39768;54.148;12.174;2023-08-20T15:09:49;102109.56;;;23.71;45.03
53514;BME280;39768;54.148;12.174;2023-08-20T15:13:51;102100.13;;;23.89;47.01
53514;BME280;39768;54.148;12.174;2023-08-20T15:17:53;102096.13;;;24.07;45.04
53514;BME280;39768;54.148;12.174;2023-08-20T15:21:55;102101.63;;;23.81;46.66
53514;BME280;39768;54.148;12.174;2023-08-20T15:25:56;102097.13;;;23.80;46.72
53514;BME280;39768;54.148;12.174;2023-08-20T15:29:58;102102.31;;;23.84;47.18
53514;BME280;39768;54.148;12.174;2023-08-20T15:34:00;102094.03;;;23.71;47.90
53514;BME280;39768;54.148;12.174;2023-08-20T15:38:01;102090.66;;;23.41;47.70
53514;BME280;39768;54.148;12.174;2023-08-20T15:42:04;102087.09;;;23.53;48.87
53514;BME280;39768;54.148;12.174;2023-08-20T15:46:05;102080.91;;;23.91;47.77
53514;BME280;39768;54.148;12.174;2023-08-20T15:50:07;102084.56;;;23.50;48.77
53514;BME280;39768;54.148;12.174;2023-08-20T15:54:09;102079.44;;;22.90;49.33
53514;BME280;39768;54.148;12.174;2023-08-20T15:58:10;102071.97;;;22.65;49.99
53514;BME280;39768;54.148;12.174;2023-08-20T16:02:12;102074.19;;;22.87;49.15
53514;BME280;39768;54.148;12.174;2023-08-20T16:06:14;102074.88;;;22.77;49.42
53514;BME280;39768;54.148;12.174;2023-08-20T16:10:15;102078.53;;;23.72;48.67
53514;BME280;39768;54.148;12.174;2023-08-20T16:14:18;102069.69;;;23.81;47.01
53514;BME280;39768;54.148;12.174;2023-08-20T16:18:21;102065.41;;;23.77;47.76
53514;BME280;39768;54.148;12.174;2023-08-20T16:22:23;102065.41;;;23.77;46.40
53514;BME280;39768;54.148;12.174;2023-08-20T16:26:24;102059.22;;;23.88;46.82
53514;BME280;39768;54.148;12.174;2023-08-20T16:30:26;102063.41;;;24.06;46.33
53514;BME280;39768;54.148;12.174;2023-08-20T16:34:27;102067.91;;;24.07;46.65
53514;BME280;39768;54.148;12.174;2023-08-20T16:38:30;102063.63;;;23.63;47.42
53514;BME280;39768;54.148;12.174;2023-08-20T16:42:32;102053.50;;;23.38;49.63
53514;BME280;39768;54.148;12.174;2023-08-20T16:46:34;102063.81;;;23.48;48.39
53514;BME280;39768;54.148;12.174;2023-08-20T16:50:36;102067.91;;;23.40;50.07
53514;BME280;39768;54.148;12.174;2023-08-20T16:54:37;102066.50;;;23.74;48.36
53514;BME280;39768;54.148;12.174;2023-08-20T16:58:40;102065.81;;;24.10;47.10
53514;BME280;39768;54.148;12.174;2023-08-20T17:02:41;102065.78;;;24.74;45.08
53514;BME280;39768;54.148;12.174;2023-08-20T17:06:43;102066.84;;;24.84;44.55
53514;BME280;39768;54.148;12.174;2023-08-20T17:10:45;102071.09;;;25.37;43.33
53514;BME280;39768;54.148;12.174;2023-08-20T17:14:48;102067.13;;;26.00;40.67
53514;BME280;39768;54.148;12.174;2023-08-20T17:18:50;102064.66;;;25.73;42.48
53514;BME280;39768;54.148;12.174;2023-08-20T17:22:54;102068.00;;;26.01;41.45
53514;BME280;39768;54.148;12.174;2023-08-20T17:26:57;102066.59;;;25.84;40.01
53514;BME280;39768;54.148;12.174;2023-08-20T17:31:02;102058.81;;;24.32;43.53
53514;BME280;39768;54.148;12.174;2023-08-20T17:35:04;102047.47;;;23.73;45.03
53514;BME280;39768;54.148;12.174;2023-08-20T17:39:06;102049.91;;;23.51;45.24
53514;BME280;39768;54.148;12.174;2023-08-20T17:43:12;102047.69;;;23.30;45.14
53514;BME280;39768;54.148;12.174;2023-08-20T17:47:13;102042.53;;;23.12;46.19
53514;BME280;39768;54.148;12.174;2023-08-20T17:51:15;102044.13;;;23.01;47.38
53514;BME280;39768;54.148;12.174;2023-08-20T17:55:16;102053.91;;;22.91;47.91
53514;BME280;39768;54.148;12.174;2023-08-20T17:59:18;102050.81;;;22.83;50.23
53514;BME280;39768;54.148;12.174;2023-08-20T18:03:19;102042.16;;;22.62;50.83
53514;BME280;39768;54.148;12.174;2023-08-20T18:07:21;102037.78;;;22.60;49.97
53514;BME280;39768;54.148;12.174;2023-08-20T18:11:22;102043.59;;;22.54;51.39
53514;BME280;39768;54.148;12.174;2023-08-20T18:15:24;102039.63;;;22.45;53.88
53514;BME280;39768;54.148;12.174;2023-08-20T18:19:26;102041.16;;;22.35;55.83
53514;BME280;39768;54.148;12.174;2023-08-20T18:23:27;102049.53;;;22.18;58.82
53514;BME280;39768;54.148;12.174;2023-08-20T18:27:29;102047.97;;;21.99;61.11
53514;BME280;39768;54.148;12.174;2023-08-20T18:31:30;102050.81;;;21.82;64.03
53514;BME280;39768;54.148;12.174;2023-08-20T18:35:32;102056.72;;;21.45;65.18
53514;BME280;39768;54.148;12.174;2023-08-20T18:39:34;102065.06;;;21.26;67.62
53514;BME280;39768;54.148;12.174;2023-08-20T18:43:36;102056.03;;;21.10;70.18
53514;BME280;39768;54.148;12.174;2023-08-20T18:47:38;102061.91;;;21.18;70.13
53514;BME280;39768;54.148;12.174;2023-08-20T18:51:40;102065.50;;;21.18;72.10
53514;BME280;39768;54.148;12.174;2023-08-20T18:55:42;102072.78;;;20.53;76.23
53514;BME280;39768;54.148;12.174;2023-08-20T18:59:44;102078.31;;;20.36;73.15
53514;BME280;39768;54.148;12.174;2023-08-20T19:03:46;102079.78;;;19.74;77.14
53514;BME280;39768;54.148;12.174;2023-08-20T19:07:48;102081.97;;;19.49;80.43
53514;BME280;39768;54.148;12.174;2023-08-20T19:11:53;102088.00;;;19.90;77.00
53514;BME280;39768;54.148;12.174;2023-08-20T19:15:57;102083.25;;;20.28;72.41
53514;BME280;39768;54.148;12.174;2023-08-20T19:19:59;102093.81;;;20.34;71.79
53514;BME280;39768;54.148;12.174;2023-08-20T19:24:00;102097.81;;;20.27;70.44
53514;BME280;39768;54.148;12.174;2023-08-20T19:28:06;102103.13;;;19.95;71.56
53514;BME280;39768;54.148;12.174;2023-08-20T19:32:08;102100.50;;;19.58;78.33
53514;BME280;39768;54.148;12.174;2023-08-20T19:36:10;102080.72;;;19.01;81.87
53514;BME280;39768;54.148;12.174;2023-08-20T19:40:11;102091.44;;;18.06;90.53
53514;BME280;39768;54.148;12.174;2023-08-20T19:44:13;102088.53;;;18.51;89.77
53514;BME280;39768;54.148;12.174;2023-08-20T19:48:15;102087.47;;;17.94;90.40
53514;BME280;39768;54.148;12.174;2023-08-20T19:52:17;102081.63;;;18.03;91.34
53514;BME280;39768;54.148;12.174;2023-08-20T19:56:20;102087.19;;;18.20;90.74
53514;BME280;39768;54.148;12.174;2023-08-20T20:00:22;102094.41;;;18.40;92.34
53514;BME280;39768;54.148;12.174;2023-08-20T20:04:24;102093.34;;;17.83;96.59
53514;BME280;39768;54.148;12.174;2023-08-20T20:08:26;102081.94;;;17.75;98.35
53514;BME280;39768;54.148;12.174;2023-08-20T20:12:28;102091.88;;;17.97;96.93
53514;BME280;39768;54.148;12.174;2023-08-20T20:16:30;102094.84;;;18.11;94.73
53514;BME280;39768;54.148;12.174;2023-08-20T20:20:31;102083.53;;;18.01;95.84
53514;BME280;39768;54.148;12.174;2023-08-20T20:24:34;102095.53;;;17.96;95.84
53514;BME280;39768;54.148;12.174;2023-08-20T20:28:35;102092.22;;;17.67;99.21
53514;BME280;39768;54.148;12.174;2023-08-20T20:32:40;102107.66;;;17.65;100.00
53514;BME280;39768;54.148;12.174;2023-08-20T20:36:42;102112.13;;;17.23;100.00
53514;BME280;39768;54.148;12.174;2023-08-20T20:40:44;102108.34;;;17.70;100.00
53514;BME280;39768;54.148;12.174;2023-08-20T20:44:46;102107.78;;;18.04;97.14
53514;BME280;39768;54.148;12.174;2023-08-20T20:48:48;102112.25;;;17.20;100.00